Time;durP1;ratioP1;P1;durP2;ratioP2;P2;SDS_P1;SDS_P2;PMS_P1;PMS_P2;Temp;Humidity;BMP_temperature;BMP_pressure;BME280_temperature;BME280_humidity;BME280_pressure;Samples;Min_cycle;Max_cycle;Signal;HPM_P1;HPM_P2
2023/05/27 00:00:21;;;;;;;10.23;5.82;;;;;;;12.84;100.00;96444.13;1030205;28;20069;-73
2023/05/27 00:00:51;;;;;;;9.77;5.35;;;;;;;12.82;100.00;96444.41;1034254;28;20022;-72
2023/05/27 00:01:22;;;;;;;9.73;5.65;;;;;;;12.82;100.00;96444.41;1029702;28;20403;-72
2023/05/27 00:01:52;;;;;;;11.75;5.50;;;;;;;12.73;100.00;96430.94;1026272;28;20408;-73
2023/05/27 00:02:23;;;;;;;9.35;5.45;;;;;;;12.74;100.00;96426.47;1034536;28;20022;-73
2023/05/27 00:02:53;;;;;;;10.43;5.75;;;;;;;12.75;100.00;96441.25;1034124;28;20026;-73
2023/05/27 00:03:23;;;;;;;13.68;5.93;;;;;;;12.79;100.00;96438.88;1030437;28;20026;-72
2023/05/27 00:03:54;;;;;;;20.42;7.30;;;;;;;12.77;100.00;96440.97;1026068;28;20505;-74
2023/05/27 00:04:25;;;;;;;8.77;5.93;;;;;;;12.73;100.00;96433.56;1026412;28;20428;-72
2023/05/27 00:04:55;;;;;;;12.90;6.55;;;;;;;12.78;100.00;96438.09;1026357;28;20034;-72
2023/05/27 00:05:26;;;;;;;11.40;5.88;;;;;;;12.70;100.00;96433.31;1030459;28;20358;-72
2023/05/27 00:05:56;;;;;;;9.05;6.15;;;;;;;12.76;100.00;96445.44;1030527;28;20034;-72
2023/05/27 00:06:27;;;;;;;9.23;5.68;;;;;;;12.74;100.00;96444.91;1026815;28;20432;-72
2023/05/27 00:06:57;;;;;;;10.40;6.13;;;;;;;12.74;100.00;96444.91;1030129;28;20030;-73
2023/05/27 00:07:34;;;;;;;9.35;5.82;;;;;;;12.68;100.00;96432.78;1030477;28;20018;-70
2023/05/27 00:08:05;;;;;;;9.90;6.30;;;;;;;12.72;100.00;96444.38;1026051;28;20142;-72
2023/05/27 00:08:36;;;;;;;14.43;6.15;;;;;;;12.71;100.00;96442.81;1026999;28;20374;-72
2023/05/27 00:09:06;;;;;;;10.25;5.78;;;;;;;12.61;100.00;96426.94;1026346;28;20019;-72
2023/05/27 00:09:36;;;;;;;10.85;6.03;;;;;;;12.68;100.00;96445.94;1031278;28;20042;-72
2023/05/27 00:10:07;;;;;;;11.02;5.80;;;;;;;12.61;100.00;96432.22;1038630;28;20026;-72
2023/05/27 00:10:38;;;;;;;11.88;6.00;;;;;;;12.64;100.00;96445.69;1030641;28;20018;-72
2023/05/27 00:11:08;;;;;;;10.50;5.60;;;;;;;12.65;100.00;96439.34;1029836;28;20027;-72
2023/05/27 00:11:38;;;;;;;9.15;5.38;;;;;;;12.63;100.00;96445.91;1018290;29;20020;-72
2023/05/27 00:12:09;;;;;;;9.18;5.55;;;;;;;12.61;100.00;96440.94;1018705;28;20028;-72
2023/05/27 00:12:39;;;;;;;9.55;6.55;;;;;;;12.61;100.00;96437.47;1022692;28;20024;-73
2023/05/27 00:13:10;;;;;;;12.30;6.35;;;;;;;12.57;100.00;96431.16;1026274;28;20489;-72
2023/05/27 00:13:40;;;;;;;10.35;6.03;;;;;;;12.62;100.00;96444.34;1026269;28;20034;-72
2023/05/27 00:14:11;;;;;;;10.45;5.90;;;;;;;12.61;100.00;96440.09;1030656;28;20112;-73
2023/05/27 00:14:41;;;;;;;9.82;5.75;;;;;;;12.56;100.00;96437.47;1034551;28;20115;-72
2023/05/27 00:15:12;;;;;;;11.38;6.20;;;;;;;12.60;100.00;96441.16;1030665;28;20026;-72
2023/05/27 00:15:43;;;;;;;10.35;6.03;;;;;;;12.60;100.00;96438.53;1022809;28;20023;-72
2023/05/27 00:16:13;;;;;;;9.23;5.88;;;;;;;12.59;100.00;96442.22;1018536;29;20063;-72
2023/05/27 00:16:44;;;;;;;14.30;6.00;;;;;;;12.57;100.00;96441.69;1018560;29;20070;-72
2023/05/27 00:17:14;;;;;;;10.00;5.53;;;;;;;12.56;100.00;96440.09;1028237;28;20027;-72
2023/05/27 00:17:45;;;;;;;10.57;6.10;;;;;;;12.54;100.00;96429.84;1040610;28;20239;-72
2023/05/27 00:18:15;;;;;;;9.75;6.00;;;;;;;12.52;100.00;96439.03;1038025;28;20030;-72
2023/05/27 00:18:47;;;;;;;10.38;6.40;;;;;;;12.50;100.00;96436.66;1030232;28;20038;-72
2023/05/27 00:19:17;;;;;;;8.77;5.65;;;;;;;12.50;100.00;96440.06;1030353;28;20754;-73
2023/05/27 00:19:48;;;;;;;10.00;5.95;;;;;;;12.49;100.00;96438.50;1030633;28;20049;-72
2023/05/27 00:20:19;;;;;;;13.20;6.57;;;;;;;12.49;100.00;96435.88;1030902;28;20034;-72
2023/05/27 00:20:50;;;;;;;11.50;6.15;;;;;;;12.49;100.00;96441.13;1034205;28;20479;-72
2023/05/27 00:21:21;;;;;;;8.88;5.85;;;;;;;12.52;100.00;96442.47;1022060;28;20047;-73
2023/05/27 00:21:55;;;;;;;9.80;5.85;;;;;;;12.49;100.00;96435.88;1022489;28;20043;-72
2023/05/27 00:22:28;;;;;;;11.50;5.93;;;;;;;12.42;100.00;96424.78;1027084;28;20027;-73
2023/05/27 00:22:59;;;;;;;8.95;5.18;;;;;;;12.47;100.00;96443.25;1030252;28;20030;-71
2023/05/27 00:23:30;;;;;;;13.77;6.32;;;;;;;12.46;100.00;96438.22;1030262;28;20034;-72
2023/05/27 00:24:00;;;;;;;10.75;5.28;;;;;;;12.44;100.00;96438.50;1026342;28;20428;-72
2023/05/27 00:24:33;;;;;;;11.10;6.38;;;;;;;12.42;100.00;96435.31;1026765;28;20035;-72
2023/05/27 00:25:05;;;;;;;12.77;6.03;;;;;;;12.42;100.00;96440.56;1026804;28;20022;-72
2023/05/27 00:25:36;;;;;;;9.05;5.50;;;;;;;12.42;100.00;96442.41;1026893;28;20050;-72
2023/05/27 00:26:06;;;;;;;11.50;6.25;;;;;;;12.38;100.00;96442.13;1029259;28;20041;-72
2023/05/27 00:26:38;;;;;;;12.95;5.95;;;;;;;12.38;100.00;96430.81;1026358;28;20031;-72
2023/05/27 00:27:10;;;;;;;10.70;5.60;;;;;;;12.35;100.00;96429.50;1030513;28;20030;-72
2023/05/27 00:27:41;;;;;;;8.20;5.28;;;;;;;12.36;100.00;96441.59;1026376;28;20304;-72
2023/05/27 00:28:11;;;;;;;9.32;5.90;;;;;;;12.37;100.00;96440.53;1030040;28;20037;-72
2023/05/27 00:28:41;;;;;;;9.10;5.18;;;;;;;12.36;100.00;96435.53;1026296;28;20027;-72
2023/05/27 00:29:12;;;;;;;11.38;6.03;;;;;;;12.35;100.00;96434.75;1022273;28;20070;-72
2023/05/27 00:29:42;;;;;;;9.55;4.95;;;;;;;12.35;100.00;96440.03;1022254;28;20028;-73
2023/05/27 00:30:13;;;;;;;16.00;5.95;;;;;;;12.35;100.00;96447.91;1030337;28;20026;-72
2023/05/27 00:30:43;;;;;;;10.27;6.30;;;;;;;12.36;100.00;96441.59;1038503;28;20033;-72
2023/05/27 00:31:14;;;;;;;9.88;5.53;;;;;;;12.35;100.00;96436.59;1041966;28;20029;-72
2023/05/27 00:31:45;;;;;;;11.15;5.90;;;;;;;12.34;100.00;96438.44;1034145;28;20033;-72
2023/05/27 00:32:15;;;;;;;8.50;5.22;;;;;;;12.29;100.00;96427.88;1030304;28;20415;-72
2023/05/27 00:32:46;;;;;;;12.15;6.43;;;;;;;12.33;100.00;96436.84;1022634;29;20053;-73
2023/05/27 00:33:17;;;;;;;12.63;6.05;;;;;;;12.33;100.00;96439.47;1022750;28;20142;-72
2023/05/27 00:33:47;;;;;;;12.50;5.32;;;;;;;12.33;100.00;96436.06;1026453;28;20142;-72
2023/05/27 00:34:18;;;;;;;11.77;5.82;;;;;;;12.32;100.00;96435.25;1026693;28;20116;-73
2023/05/27 00:34:48;;;;;;;12.15;6.32;;;;;;;12.32;100.00;96429.22;1030109;28;20030;-71
2023/05/27 00:35:19;;;;;;;7.43;5.57;;;;;;;12.30;100.00;96434.72;1026546;28;20523;-72
2023/05/27 00:35:49;;;;;;;7.68;5.18;;;;;;;12.33;100.00;96428.16;1034339;28;20029;-72
2023/05/27 00:36:20;;;;;;;10.98;5.63;;;;;;;12.31;100.00;96438.94;1034190;28;20574;-72
2023/05/27 00:36:50;;;;;;;8.30;5.15;;;;;;;12.30;100.00;96437.34;1034456;28;20145;-72
2023/05/27 00:37:21;;;;;;;9.27;5.35;;;;;;;12.31;100.00;96438.94;1030240;28;20451;-72
2023/05/27 00:37:51;;;;;;;9.43;5.75;;;;;;;12.29;100.00;96435.00;1030517;28;20030;-72
2023/05/27 00:38:21;;;;;;;8.05;5.57;;;;;;;12.29;100.00;96438.41;1026059;28;20026;-72
2023/05/27 00:38:52;;;;;;;9.40;5.35;;;;;;;12.29;100.00;96441.03;1026490;28;20098;-72
2023/05/27 00:39:22;;;;;;;8.25;5.70;;;;;;;12.27;100.00;96433.41;1022264;28;20055;-71
2023/05/27 00:39:53;;;;;;;8.73;5.18;;;;;;;12.23;100.00;96431.53;1024667;28;20042;-71
2023/05/27 00:40:24;;;;;;;10.95;5.38;;;;;;;12.27;100.00;96443.94;1030220;28;20322;-72
2023/05/27 00:40:55;;;;;;;9.25;5.22;;;;;;;12.14;100.00;96423.34;1030241;28;20026;-73
2023/05/27 00:41:26;;;;;;;9.80;5.55;;;;;;;12.26;100.00;96444.97;1018652;29;20043;-72
2023/05/27 00:41:57;;;;;;;10.07;5.32;;;;;;;12.25;100.00;96435.50;1030455;28;20265;-72
2023/05/27 00:42:28;;;;;;;7.43;4.93;;;;;;;12.22;100.00;96429.94;1022681;28;20342;-72
2023/05/27 00:42:58;;;;;;;9.32;5.80;;;;;;;12.23;100.00;96436.78;1030167;28;20548;-72
2023/05/27 00:43:30;;;;;;;10.80;5.85;;;;;;;12.25;100.00;96442.59;1030286;28;20646;-72
2023/05/27 00:44:01;;;;;;;8.98;5.43;;;;;;;12.22;100.00;96432.59;1030726;28;20591;-72
2023/05/27 00:44:31;;;;;;;8.98;5.10;;;;;;;12.23;100.00;96436.78;1034155;28;20109;-72
2023/05/27 00:45:05;;;;;;;10.05;5.68;;;;;;;12.23;100.00;96434.16;1034315;28;20057;-72
2023/05/27 00:45:35;;;;;;;9.10;6.22;;;;;;;12.23;100.00;96439.41;1034341;28;20022;-72
2023/05/27 00:46:06;;;;;;;8.85;5.05;;;;;;;12.20;100.00;96432.03;1034552;28;20038;-72
2023/05/27 00:46:37;;;;;;;11.80;6.28;;;;;;;12.21;100.00;96431.78;1038073;28;20021;-72
2023/05/27 00:47:07;;;;;;;10.38;5.78;;;;;;;12.20;100.00;96432.81;1038381;28;20022;-72
2023/05/27 00:47:38;;;;;;;11.60;5.80;;;;;;;12.15;100.00;96426.75;1034142;28;20057;-73
2023/05/27 00:48:08;;;;;;;7.50;5.20;;;;;;;12.20;100.00;96432.81;1026257;28;20090;-73
2023/05/27 00:48:38;;;;;;;10.95;5.30;;;;;;;12.20;100.00;96438.09;1030089;28;20026;-72
2023/05/27 00:49:09;;;;;;;9.15;5.28;;;;;;;12.20;100.00;96426.78;1030412;28;20026;-72
2023/05/27 00:49:39;;;;;;;15.40;5.40;;;;;;;12.22;100.00;96432.59;1030317;28;20030;-73
2023/05/27 00:50:10;;;;;;;12.68;5.60;;;;;;;12.17;100.00;96428.09;1030275;28;20524;-72
2023/05/27 00:50:40;;;;;;;10.95;5.85;;;;;;;12.21;100.00;96438.91;1022178;29;20884;-72
2023/05/27 00:51:11;;;;;;;14.32;5.53;;;;;;;12.22;100.00;96429.94;1017921;28;20047;-72
2023/05/27 00:51:41;;;;;;;9.95;4.68;;;;;;;12.20;100.00;96429.41;1026083;28;20033;-72
2023/05/27 00:52:13;;;;;;;12.20;5.75;;;;;;;12.15;100.00;96432.03;1026496;28;20027;-72
2023/05/27 00:52:43;;;;;;;10.68;5.72;;;;;;;12.17;100.00;96432.53;1026238;28;20034;-72
2023/05/27 00:53:15;;;;;;;12.80;5.85;;;;;;;12.17;100.00;96436.00;1026312;28;20285;-71
2023/05/27 00:53:45;;;;;;;6.43;5.03;;;;;;;12.16;100.00;96434.38;1034196;28;20634;-72
2023/05/27 00:54:16;;;;;;;8.80;5.32;;;;;;;12.17;100.00;96422.03;1026559;28;20270;-72
2023/05/27 00:54:46;;;;;;;9.20;5.38;;;;;;;12.18;100.00;96436.78;1034226;28;20026;-72
2023/05/27 00:55:17;;;;;;;9.73;5.38;;;;;;;12.19;100.00;96436.50;1030100;28;20041;-72
2023/05/27 00:55:47;;;;;;;9.45;5.45;;;;;;;12.18;100.00;96434.16;1030425;28;20258;-72
2023/05/27 00:56:18;;;;;;;12.75;5.82;;;;;;;12.18;100.00;96439.41;1026374;28;20034;-72
2023/05/27 00:56:48;;;;;;;15.13;5.75;;;;;;;12.18;100.00;96434.16;1026318;28;20034;-72
2023/05/27 00:57:19;;;;;;;9.23;5.07;;;;;;;12.16;100.00;96437.00;1034477;28;20026;-72
2023/05/27 00:57:49;;;;;;;9.20;5.32;;;;;;;12.14;100.00;96436.50;1034223;28;20034;-71
2023/05/27 00:58:21;;;;;;;9.98;5.55;;;;;;;12.13;100.00;96436.75;1030940;28;20030;-71
2023/05/27 00:58:51;;;;;;;10.43;6.55;;;;;;;12.12;100.00;96435.16;1030347;28;20136;-72
2023/05/27 00:59:22;;;;;;;9.05;5.25;;;;;;;12.05;100.00;96424.06;1030250;28;20081;-72
2023/05/27 00:59:53;;;;;;;8.32;5.70;;;;;;;12.10;100.00;96431.97;1025613;28;20039;-72
2023/05/27 01:00:23;;;;;;;10.65;5.28;;;;;;;12.11;100.00;96433.59;1025609;28;20034;-72
2023/05/27 01:00:54;;;;;;;9.27;5.35;;;;;;;12.09;100.00;96431.19;1038375;28;20029;-72
2023/05/27 01:01:28;;;;;;;9.55;5.40;;;;;;;12.09;100.00;96430.41;1033620;28;20051;-72
2023/05/27 01:01:58;;;;;;;11.38;5.50;;;;;;;12.03;100.00;96422.47;1036338;28;20033;-73
2023/05/27 01:02:29;;;;;;;8.27;5.10;;;;;;;12.07;100.00;96428.00;1029867;28;20026;-72
2023/05/27 01:02:59;;;;;;;11.35;5.50;;;;;;;12.00;100.00;96423.00;1030252;28;20034;-72
2023/05/27 01:03:32;;;;;;;10.70;6.00;;;;;;;12.07;100.00;96432.50;1022026;28;20547;-72
2023/05/27 01:04:03;;;;;;;9.45;5.70;;;;;;;12.01;100.00;96419.31;1025707;28;20035;-72
2023/05/27 01:04:34;;;;;;;9.63;5.60;;;;;;;12.02;100.00;96428.78;1029339;28;20756;-73
2023/05/27 01:05:05;;;;;;;11.88;5.40;;;;;;;12.03;100.00;96432.22;1023260;28;20023;-73
2023/05/27 01:05:35;;;;;;;7.78;5.05;;;;;;;12.01;100.00;96435.09;1025811;28;20031;-72
2023/05/27 01:06:30;;;;;;;7.82;5.25;;;;;;;11.93;100.00;96421.63;1026224;28;20671;-72
2023/05/27 01:07:23;;;;;;;11.27;5.90;;;;;;;11.98;100.00;96429.56;1021191;29;20030;-72
2023/05/27 01:07:53;;;;;;;9.38;5.07;;;;;;;11.98;100.00;96426.94;1028442;28;20336;-73
2023/05/27 01:08:45;;;;;;;9.85;5.30;;;;;;;11.95;100.00;96422.19;1031807;28;20522;-73
2023/05/27 01:09:28;;;;;;;8.65;5.57;;;;;;;11.95;100.00;96424.81;1038502;28;20684;-73
2023/05/27 01:10:01;;;;;;;7.95;5.68;;;;;;;11.90;100.00;96422.13;1034350;28;20803;-72
2023/05/27 01:10:52;;;;;;;12.65;5.93;;;;;;;11.92;100.00;96426.09;1038276;28;20335;-73
2023/05/27 01:11:26;;;;;;;9.95;5.93;;;;;;;11.87;100.00;96420.81;1029715;28;20265;-73
2023/05/27 01:12:06;;;;;;;10.32;6.03;;;;;;;11.90;100.00;96425.53;1030069;28;20496;-72
2023/05/27 01:12:50;;;;;;;9.23;5.57;;;;;;;11.89;100.00;96421.34;1026162;28;20277;-72
2023/05/27 01:13:39;;;;;;;9.13;5.50;;;;;;;11.88;100.00;96430.28;1033824;28;20100;-73
2023/05/27 01:14:11;;;;;;;11.45;5.65;;;;;;;11.83;100.00;96419.69;1038452;28;20256;-72
2023/05/27 01:14:43;;;;;;;10.38;5.88;;;;;;;11.86;100.00;96427.09;1034361;28;20269;-73
2023/05/27 01:15:13;;;;;;;10.10;5.10;;;;;;;11.75;100.00;96407.81;1027329;28;20019;-73
2023/05/27 01:15:44;;;;;;;7.80;4.70;;;;;;;11.86;100.00;96419.22;1024642;28;20727;-72
2023/05/27 01:16:16;;;;;;;9.68;5.40;;;;;;;11.85;100.00;96425.53;1026798;28;20038;-73
2023/05/27 01:16:46;;;;;;;8.07;6.00;;;;;;;11.85;100.00;96424.75;1026575;28;20254;-72
2023/05/27 01:17:17;;;;;;;9.05;5.55;;;;;;;11.85;100.00;96424.75;1020313;29;20318;-73
2023/05/27 01:17:48;;;;;;;9.98;5.20;;;;;;;11.84;100.00;96423.09;1028525;28;20437;-73
2023/05/27 01:18:19;;;;;;;9.63;5.25;;;;;;;11.84;100.00;96425.72;1026465;28;20743;-72
2023/05/27 01:18:49;;;;;;;10.50;5.45;;;;;;;11.77;100.00;96412.84;1026237;28;20307;-73
2023/05/27 01:19:30;;;;;;;8.57;4.95;;;;;;;11.76;100.00;96416.50;1017006;29;20411;-72
2023/05/27 01:20:00;;;;;;;14.23;4.95;;;;;;;11.82;100.00;96427.84;1026203;28;20409;-73
2023/05/27 01:20:31;;;;;;;9.25;5.43;;;;;;;11.82;100.00;96423.38;1026122;28;20250;-73
2023/05/27 01:21:10;;;;;;;6.72;4.88;;;;;;;11.82;100.00;96426.00;1026636;28;20563;-73
2023/05/27 01:21:44;;;;;;;10.13;5.20;;;;;;;11.81;100.00;96416.53;1026135;28;20428;-72
2023/05/27 01:22:15;;;;;;;9.80;5.55;;;;;;;11.77;100.00;96412.84;1034198;28;20689;-72
2023/05/27 01:22:45;;;;;;;11.25;5.55;;;;;;;11.79;100.00;96416.78;1030060;28;20253;-72
2023/05/27 01:23:16;;;;;;;8.23;5.07;;;;;;;11.79;100.00;96424.66;1022331;29;20615;-73
2023/05/27 01:23:49;;;;;;;9.45;5.40;;;;;;;11.77;100.00;96418.09;1029966;28;20018;-72
2023/05/27 01:24:20;;;;;;;7.43;5.10;;;;;;;11.78;100.00;96424.94;1033936;28;20556;-72
2023/05/27 01:24:50;;;;;;;10.63;6.00;;;;;;;11.73;100.00;96417.00;1034030;28;20265;-72
2023/05/27 01:25:21;;;;;;;9.38;5.10;;;;;;;11.78;100.00;96420.47;1034887;28;20036;-72
2023/05/27 01:25:51;;;;;;;10.23;5.00;;;;;;;11.77;100.00;96423.34;1038544;28;20017;-72
2023/05/27 01:26:22;;;;;;;11.90;5.40;;;;;;;11.76;100.00;96424.38;1042070;28;20155;-72
2023/05/27 01:26:53;;;;;;;7.05;5.03;;;;;;;11.75;100.00;96420.97;1034364;28;20026;-72
2023/05/27 01:27:24;;;;;;;10.77;5.53;;;;;;;11.75;100.00;96414.91;1034475;28;20021;-72
2023/05/27 01:27:56;;;;;;;12.52;5.82;;;;;;;11.76;100.00;96421.75;1029714;28;20265;-72
2023/05/27 01:28:26;;;;;;;13.63;5.75;;;;;;;11.73;100.00;96417.78;1030102;28;20759;-73
2023/05/27 01:28:56;;;;;;;11.27;5.30;;;;;;;11.75;100.00;96425.44;1026327;28;20266;-72
2023/05/27 01:29:28;;;;;;;7.95;5.10;;;;;;;11.70;100.00;96417.50;1024232;28;20543;-73
2023/05/27 01:29:58;;;;;;;11.30;4.82;;;;;;;11.66;100.00;96409.31;1022097;29;20082;-73
2023/05/27 01:30:29;;;;;;;7.32;5.22;;;;;;;11.66;100.00;96408.53;1026152;28;20309;-72
2023/05/27 01:31:24;;;;;;;11.00;5.45;;;;;;;11.71;100.00;96421.72;1025765;28;20089;-71
2023/05/27 01:32:05;;;;;;;12.07;5.20;;;;;;;11.68;100.00;96411.72;1019555;29;20303;-72
2023/05/27 01:32:54;;;;;;;11.15;5.07;;;;;;;11.69;100.00;96421.19;1027608;28;20258;-73
2023/05/27 01:33:25;;;;;;;10.27;5.45;;;;;;;11.67;100.00;96420.63;1030105;28;20249;-74
2023/05/27 01:33:59;;;;;;;12.30;5.70;;;;;;;11.64;100.00;96419.31;1030208;28;20278;-73
2023/05/27 01:35:00;;;;;;;6.55;4.93;;;;;;;11.61;100.00;96419.81;1021973;28;20517;-72
2023/05/27 01:35:51;;;;;;;10.20;4.97;;;;;;;11.58;100.00;96415.06;1017686;29;20282;-73
2023/05/27 01:36:23;;;;;;;9.85;5.80;;;;;;;11.59;100.00;96413.22;1024516;28;20027;-72
2023/05/27 01:36:55;;;;;;;8.80;5.10;;;;;;;11.60;100.00;96414.78;1026090;28;20047;-73
2023/05/27 01:37:26;;;;;;;11.13;5.40;;;;;;;11.58;100.00;96415.06;1022108;29;20334;-73
2023/05/27 01:37:56;;;;;;;8.90;5.20;;;;;;;11.60;100.00;96417.44;1030054;28;20300;-73
2023/05/27 01:38:27;;;;;;;8.60;5.05;;;;;;;11.54;100.00;96408.72;1030194;28;20022;-72
2023/05/27 01:38:57;;;;;;;10.32;5.40;;;;;;;11.51;100.00;96402.13;1026023;28;20033;-73
2023/05/27 01:39:28;;;;;;;10.30;5.25;;;;;;;11.52;100.00;96414.22;1018266;29;20020;-72
2023/05/27 01:39:59;;;;;;;9.70;5.20;;;;;;;11.54;100.00;96408.72;1021870;29;20015;-72
2023/05/27 01:40:29;;;;;;;8.13;5.45;;;;;;;11.54;100.00;96414.00;1022255;28;20042;-73
2023/05/27 01:41:00;;;;;;;10.23;5.32;;;;;;;11.54;100.00;96409.50;1025393;28;20737;-71
2023/05/27 01:41:30;;;;;;;10.93;5.38;;;;;;;11.48;100.00;96401.84;1025788;28;20078;-73
2023/05/27 01:42:01;;;;;;;9.60;4.93;;;;;;;11.50;100.00;96403.19;1026264;28;20074;-73
2023/05/27 01:42:35;;;;;;;14.55;6.03;;;;;;;11.53;100.00;96407.91;1022317;28;20027;-72
2023/05/27 01:43:06;;;;;;;14.13;5.72;;;;;;;11.52;100.00;96408.97;1033875;28;20808;-73
2023/05/27 01:43:37;;;;;;;8.75;5.18;;;;;;;11.53;100.00;96407.91;1030015;28;20262;-72
2023/05/27 01:44:08;;;;;;;10.90;5.47;;;;;;;11.52;100.00;96406.34;1030849;28;20591;-73
2023/05/27 01:44:39;;;;;;;11.00;5.78;;;;;;;11.52;100.00;96405.53;1029794;28;20259;-72
2023/05/27 01:45:10;;;;;;;8.02;5.13;;;;;;;11.52;100.00;96408.19;1026185;28;20285;-72
2023/05/27 01:45:40;;;;;;;7.47;4.88;;;;;;;11.52;100.00;96400.28;1030109;28;20088;-73
2023/05/27 01:46:11;;;;;;;8.23;5.22;;;;;;;11.51;100.00;96401.34;1030384;28;20109;-72
2023/05/27 01:46:41;;;;;;;15.00;5.57;;;;;;;11.45;100.00;96392.63;1034012;28;20022;-73
2023/05/27 01:47:12;;;;;;;10.90;5.03;;;;;;;11.51;100.00;96404.75;1029942;28;20027;-73
2023/05/27 01:47:43;;;;;;;11.05;5.82;;;;;;;11.52;100.00;96410.81;1030253;28;20120;-73
2023/05/27 01:48:13;;;;;;;9.50;4.60;;;;;;;11.50;100.00;96400.56;1030088;28;20638;-73
2023/05/27 01:48:44;;;;;;;9.50;5.05;;;;;;;11.50;100.00;96408.44;1026543;28;20270;-73
2023/05/27 01:49:15;;;;;;;6.63;4.88;;;;;;;11.50;100.00;96408.44;1033884;28;20485;-72
2023/05/27 01:49:45;;;;;;;12.02;5.05;;;;;;;11.43;100.00;96401.78;1030310;28;20084;-72
2023/05/27 01:50:15;;;;;;;9.80;5.30;;;;;;;11.49;100.00;96401.59;1026347;28;20027;-72
2023/05/27 01:50:46;;;;;;;10.05;5.00;;;;;;;11.50;100.00;96402.38;1030083;28;20029;-72
2023/05/27 01:51:16;;;;;;;7.80;4.78;;;;;;;11.48;100.00;96402.63;1025234;28;20497;-73
2023/05/27 01:51:47;;;;;;;7.50;5.13;;;;;;;11.47;100.00;96406.31;1026191;28;20103;-73
2023/05/27 01:52:18;;;;;;;10.88;5.32;;;;;;;11.45;100.00;96410.22;1030139;28;20048;-73
2023/05/27 01:52:48;;;;;;;9.63;5.00;;;;;;;11.46;100.00;96412.59;1026223;28;20094;-73
2023/05/27 01:53:19;;;;;;;8.65;5.10;;;;;;;11.47;100.00;96406.31;1025907;28;20026;-73
2023/05/27 01:53:49;;;;;;;8.88;4.82;;;;;;;11.46;100.00;96409.97;1026008;28;20046;-73
2023/05/27 01:54:20;;;;;;;10.45;5.28;;;;;;;11.47;100.00;96413.41;1022151;28;20047;-72
2023/05/27 01:54:50;;;;;;;8.57;5.05;;;;;;;11.45;100.00;96400.50;1026239;28;20497;-74
2023/05/27 01:55:20;;;;;;;9.77;4.75;;;;;;;11.45;100.00;96411.00;1033334;28;20030;-72
2023/05/27 01:55:51;;;;;;;8.77;4.72;;;;;;;11.45;100.00;96410.22;1026250;28;20031;-73
2023/05/27 01:56:22;;;;;;;8.98;5.18;;;;;;;11.43;100.00;96407.03;1034110;28;20617;-72
2023/05/27 01:56:52;;;;;;;7.72;4.88;;;;;;;11.44;100.00;96403.41;1029982;28;20046;-72
2023/05/27 01:57:24;;;;;;;10.07;6.00;;;;;;;11.24;100.00;96378.53;1026076;28;20683;-73
2023/05/27 01:57:54;;;;;;;11.48;5.47;;;;;;;11.43;100.00;96407.03;1029945;28;20026;-72
2023/05/27 01:58:25;;;;;;;7.68;4.95;;;;;;;11.28;100.00;96382.25;1022460;28;20266;-72
2023/05/27 01:58:55;;;;;;;11.32;5.25;;;;;;;11.31;100.00;96389.63;1022337;28;20031;-72
2023/05/27 01:59:26;;;;;;;9.55;5.20;;;;;;;11.39;100.00;96409.38;1030007;28;20026;-72
2023/05/27 01:59:56;;;;;;;16.02;5.70;;;;;;;11.39;100.00;96405.97;1029363;28;20634;-73
2023/05/27 02:00:27;;;;;;;9.43;5.15;;;;;;;11.37;100.00;96406.22;1025196;28;20416;-72
2023/05/27 02:00:57;;;;;;;9.18;4.80;;;;;;;11.39;100.00;96413.84;1025928;28;20070;-72
2023/05/27 02:01:28;;;;;;;10.98;4.80;;;;;;;11.37;100.00;96406.22;1021550;29;20031;-73
2023/05/27 02:01:58;;;;;;;8.02;4.57;;;;;;;11.37;100.00;96402.78;1022124;28;20060;-72
2023/05/27 02:02:29;;;;;;;8.70;4.78;;;;;;;11.35;100.00;96402.25;1034302;28;20030;-73
2023/05/27 02:02:59;;;;;;;8.85;4.65;;;;;;;11.36;100.00;96402.00;1038304;28;20033;-73
2023/05/27 02:03:30;;;;;;;10.63;5.22;;;;;;;11.34;100.00;96401.47;1034721;28;20593;-73
2023/05/27 02:04:00;;;;;;;11.57;5.10;;;;;;;11.36;100.00;96403.84;1038043;28;20974;-72
2023/05/27 02:04:31;;;;;;;8.10;4.80;;;;;;;11.35;100.00;96405.69;1030158;28;20089;-73
2023/05/27 02:05:02;;;;;;;12.30;5.95;;;;;;;11.28;100.00;96399.84;1030198;28;20077;-73
2023/05/27 02:05:33;;;;;;;8.40;4.82;;;;;;;11.30;100.00;96400.38;1038143;28;20033;-72
2023/05/27 02:06:03;;;;;;;10.18;4.63;;;;;;;11.32;100.00;96403.56;1034142;28;20280;-72
2023/05/27 02:06:33;;;;;;;12.65;4.68;;;;;;;11.30;100.00;96401.19;1030360;28;20061;-72
2023/05/27 02:07:04;;;;;;;10.85;5.50;;;;;;;11.30;100.00;96410.88;1029952;28;20077;-72
2023/05/27 02:07:34;;;;;;;12.77;5.40;;;;;;;11.27;100.00;96401.69;1030335;28;20932;-73
2023/05/27 02:08:05;;;;;;;12.48;4.68;;;;;;;11.27;100.00;96406.94;1030318;28;20042;-72
2023/05/27 02:08:35;;;;;;;11.32;5.30;;;;;;;11.26;100.00;96405.34;1034141;28;20018;-73
2023/05/27 02:09:06;;;;;;;10.80;4.55;;;;;;;11.27;100.00;96403.53;1034275;28;20594;-73
2023/05/27 02:09:37;;;;;;;12.23;5.05;;;;;;;11.25;100.00;96408.22;1026374;28;20038;-73
2023/05/27 02:10:07;;;;;;;13.13;5.20;;;;;;;11.21;100.00;96396.63;1030071;28;20026;-73
2023/05/27 02:10:38;;;;;;;9.13;4.88;;;;;;;11.19;100.00;96389.00;1025871;28;20042;-73
2023/05/27 02:11:08;;;;;;;10.60;5.10;;;;;;;11.22;100.00;96406.09;1025730;28;20037;-72
2023/05/27 02:11:39;;;;;;;7.72;4.60;;;;;;;11.21;100.00;96401.88;1022036;29;20027;-72
2023/05/27 02:12:10;;;;;;;9.13;5.00;;;;;;;11.19;100.00;96406.59;1032072;28;20519;-72
2023/05/27 02:12:40;;;;;;;9.55;5.00;;;;;;;11.05;100.00;96374.69;1034165;28;20526;-73
2023/05/27 02:13:10;;;;;;;11.60;5.43;;;;;;;11.17;100.00;96404.22;1026397;28;20421;-75
2023/05/27 02:13:42;;;;;;;10.45;6.13;;;;;;;11.15;100.00;96400.25;1030410;28;20034;-72
2023/05/27 02:14:13;;;;;;;7.20;5.03;;;;;;;11.15;100.00;96402.88;1034137;28;20053;-72
2023/05/27 02:14:44;;;;;;;9.32;4.72;;;;;;;11.14;100.00;96401.31;1034487;28;20265;-72
2023/05/27 02:15:15;;;;;;;12.15;4.65;;;;;;;11.07;100.00;96397.03;1038285;28;20272;-73
2023/05/27 02:15:45;;;;;;;12.45;4.95;;;;;;;11.14;100.00;96403.94;1033527;28;20272;-73
2023/05/27 02:16:16;;;;;;;10.43;5.25;;;;;;;11.13;100.00;96404.97;1025972;28;20591;-72
2023/05/27 02:16:49;;;;;;;7.13;4.40;;;;;;;11.10;100.00;96398.38;1026011;28;20041;-72
2023/05/27 02:17:19;;;;;;;9.27;4.72;;;;;;;11.11;100.00;96404.44;1024941;28;20412;-74
2023/05/27 02:17:55;;;;;;;8.52;4.75;;;;;;;11.09;100.00;96408.06;1026299;28;20274;-73
2023/05/27 02:18:25;;;;;;;11.95;5.03;;;;;;;11.04;100.00;96394.13;1030060;28;20034;-72
2023/05/27 02:18:56;;;;;;;10.13;4.50;;;;;;;11.09;100.00;96413.31;1034120;28;20276;-72
2023/05/27 02:19:26;;;;;;;9.82;5.45;;;;;;;11.06;100.00;96400.69;1033910;28;20041;-73
2023/05/27 02:19:57;;;;;;;9.43;5.13;;;;;;;11.04;100.00;96397.53;1034086;28;20030;-72
2023/05/27 02:20:29;;;;;;;9.63;5.00;;;;;;;11.07;100.00;96399.66;1030022;28;20103;-72
2023/05/27 02:21:05;;;;;;;12.38;4.50;;;;;;;11.05;100.00;96398.31;1030243;28;20104;-72
2023/05/27 02:21:35;;;;;;;7.30;4.75;;;;;;;11.02;100.00;96406.69;1030637;28;20688;-72
2023/05/27 02:22:06;;;;;;;10.35;5.03;;;;;;;11.02;100.00;96404.88;1030120;28;20261;-72
2023/05/27 02:22:36;;;;;;;9.15;4.50;;;;;;;11.00;100.00;96399.09;1029303;28;20018;-72
2023/05/27 02:23:07;;;;;;;10.82;4.95;;;;;;;11.00;100.00;96403.50;1034877;28;20022;-73
2023/05/27 02:23:37;;;;;;;8.23;4.72;;;;;;;10.98;100.00;96401.16;1030792;28;20074;-72
2023/05/27 02:24:08;;;;;;;8.93;5.40;;;;;;;10.98;100.00;96403.00;1034038;28;20026;-72
2023/05/27 02:24:38;;;;;;;7.00;4.80;;;;;;;10.97;100.00;96404.03;1030618;28;20063;-72
2023/05/27 02:25:09;;;;;;;8.48;4.15;;;;;;;10.96;100.00;96403.22;1029858;28;20027;-72
2023/05/27 02:25:39;;;;;;;9.55;4.82;;;;;;;10.95;100.00;96406.91;1030616;28;20030;-73
2023/05/27 02:26:10;;;;;;;9.27;4.72;;;;;;;10.92;100.00;96396.09;1026353;28;20030;-73
2023/05/27 02:26:40;;;;;;;8.38;4.85;;;;;;;10.94;100.00;96405.31;1026669;28;20030;-73
2023/05/27 02:27:11;;;;;;;9.30;4.43;;;;;;;10.93;100.00;96402.94;1027070;28;20093;-72